Time;durP1;ratioP1;P1;durP2;ratioP2;P2;SDS_P1;SDS_P2;PMS_P1;PMS_P2;Temp;Humidity;BMP_temperature;BMP_pressure;BME280_temperature;BME280_humidity;BME280_pressure;Samples;Min_cycle;Max_cycle;Signal;HPM_P1;HPM_P2
2021/08/30 19:24:03;;;;;;;36.42;22.48;;;;;;;20.85;79.03;99666.06;5065877;28;20379;-62
2021/08/30 19:26:29;;;;;;;39.17;24.45;;;;;;;20.81;78.67;99653.94;5065908;28;20137;-61
2021/08/30 19:28:55;;;;;;;42.72;23.75;;;;;;;20.89;79.05;99662.25;5064978;28;20139;-62
2021/08/30 19:31:21;;;;;;;32.70;20.70;;;;;;;20.99;78.49;99651.81;5064034;28;20044;-62
2021/08/30 19:33:47;;;;;;;35.85;20.33;;;;;;;21.03;78.70;99656.84;5065727;28;20045;-62
2021/08/30 19:36:15;;;;;;;37.85;21.50;;;;;;;21.08;78.27;99646.72;5062582;28;20501;-63
2021/08/30 19:38:47;;;;;;;37.47;20.67;;;;;;;21.20;77.58;99650.34;5014804;28;20040;-58
2021/08/30 19:41:15;;;;;;;35.00;20.70;;;;;;;20.98;77.98;99648.31;5064944;28;20045;-59
2021/08/30 19:43:43;;;;;;;33.40;20.13;;;;;;;20.73;78.53;99611.88;5068746;28;20040;-61
2021/08/30 19:46:12;;;;;;;32.70;21.05;;;;;;;20.78;79.01;99635.50;5087051;28;20039;-61
2021/08/30 19:48:39;;;;;;;29.80;21.08;;;;;;;20.50;79.61;99621.41;5040470;28;20036;-61
2021/08/30 19:51:06;;;;;;;31.70;20.70;;;;;;;20.41;80.23;99631.81;5056443;28;20049;-62
2021/08/30 19:53:32;;;;;;;24.67;19.77;;;;;;;20.32;80.06;99635.91;5061507;28;20064;-63
2021/08/30 19:55:58;;;;;;;24.40;18.25;;;;;;;20.26;79.98;99618.56;5052992;28;20127;-63
2021/08/30 19:58:24;;;;;;;27.20;18.90;;;;;;;20.20;80.27;99626.94;5050936;28;20041;-62
2021/08/30 20:00:51;;;;;;;32.15;20.90;;;;;;;20.10;80.33;99614.34;5050979;28;20044;-62
2021/08/30 20:03:17;;;;;;;32.75;20.38;;;;;;;20.16;79.73;99616.59;5050590;28;20051;-62
2021/08/30 20:05:43;;;;;;;32.00;20.42;;;;;;;20.11;80.06;99619.56;5026897;28;20433;-61
2021/08/30 20:08:09;;;;;;;34.47;22.08;;;;;;;20.09;81.14;99625.94;5052051;28;20501;-58
2021/08/30 20:10:34;;;;;;;33.85;22.45;;;;;;;20.09;81.15;99618.81;5058825;28;20127;-60
2021/08/30 20:13:00;;;;;;;40.25;24.13;;;;;;;19.96;81.26;99604.59;5050520;28;20048;-59
2021/08/30 20:15:26;;;;;;;38.40;24.10;;;;;;;20.08;81.73;99626.88;5060382;28;20045;-56
2021/08/30 20:17:52;;;;;;;43.63;24.88;;;;;;;19.98;81.70;99618.63;5054712;28;20486;-59
2021/08/30 20:20:17;;;;;;;40.40;24.63;;;;;;;20.06;81.53;99636.72;5048671;28;20154;-62
2021/08/30 20:22:43;;;;;;;39.92;24.50;;;;;;;20.06;81.11;99636.72;5054067;28;20071;-62
2021/08/30 20:25:10;;;;;;;35.80;23.70;;;;;;;20.03;81.50;99631.59;5056463;28;20484;-59
2021/08/30 20:27:37;;;;;;;32.97;24.65;;;;;;;20.02;81.76;99622.78;5060482;28;20037;-58
2021/08/30 20:30:03;;;;;;;32.50;22.10;;;;;;;19.99;81.87;99617.69;5055694;28;20049;-61
2021/08/30 20:32:30;;;;;;;32.90;22.40;;;;;;;19.93;81.73;99624.25;5049905;28;20494;-61
2021/08/30 20:34:57;;;;;;;36.15;23.90;;;;;;;19.91;82.48;99620.84;5037256;28;20132;-61
2021/08/30 20:37:24;;;;;;;30.25;22.60;;;;;;;19.84;82.22;99614.22;5034142;28;20049;-58
2021/08/30 20:39:50;;;;;;;36.75;24.63;;;;;;;19.93;82.90;99631.34;5033206;28;20538;-60
2021/08/30 20:42:16;;;;;;;39.85;23.23;;;;;;;19.79;83.04;99618.97;5039339;28;20044;-60
2021/08/30 20:44:44;;;;;;;38.35;25.10;;;;;;;19.90;82.74;99635.06;5024267;28;20049;-61
2021/08/30 20:47:10;;;;;;;36.42;24.48;;;;;;;19.93;82.51;99634.00;5033083;28;20047;-60
2021/08/30 20:49:36;;;;;;;36.30;24.30;;;;;;;19.95;82.73;99637.41;5038390;28;20430;-60
2021/08/30 20:52:03;;;;;;;34.85;23.75;;;;;;;19.99;82.43;99637.13;5035653;28;20037;-61
2021/08/30 20:54:29;;;;;;;37.97;26.48;;;;;;;20.03;82.60;99642.22;5048404;28;20135;-60
2021/08/30 20:56:54;;;;;;;45.03;28.48;;;;;;;19.90;82.71;99631.56;5014510;28;20149;-61
2021/08/30 20:59:20;;;;;;;41.60;27.17;;;;;;;19.95;83.01;99638.25;5042103;28;20741;-59
2021/08/30 21:01:46;;;;;;;36.72;27.15;;;;;;;19.84;83.42;99634.59;5035296;28;20034;-61
2021/08/30 21:04:12;;;;;;;41.15;28.65;;;;;;;19.81;83.87;99635.66;5008074;28;20091;-62
2021/08/30 21:06:37;;;;;;;38.35;27.23;;;;;;;19.83;83.66;99631.09;5038158;28;20049;-60
2021/08/30 21:09:03;;;;;;;43.38;28.27;;;;;;;19.83;83.83;99633.75;5042584;28;20056;-62
2021/08/30 21:11:29;;;;;;;38.53;28.00;;;;;;;19.81;84.04;99629.50;5037794;28;20071;-59
2021/08/30 21:13:55;;;;;;;34.33;27.23;;;;;;;19.76;83.88;99627.13;5030388;28;20045;-61
2021/08/30 21:16:21;;;;;;;37.88;27.52;;;;;;;19.66;84.11;99621.56;5028829;28;20517;-61
2021/08/30 21:18:48;;;;;;;37.70;26.40;;;;;;;19.68;84.23;99619.66;5036522;28;20066;-61
2021/08/30 21:21:14;;;;;;;37.90;26.65;;;;;;;19.64;84.34;99625.25;5043505;28;20647;-60
2021/08/30 21:23:40;;;;;;;41.67;27.05;;;;;;;19.56;84.61;99620.44;5041208;28;20049;-60
2021/08/30 21:26:06;;;;;;;46.72;27.77;;;;;;;19.55;84.87;99624.03;5044163;28;20048;-62
2021/08/30 21:28:31;;;;;;;43.80;28.38;;;;;;;19.55;85.11;99633.78;5010801;28;20387;-59
2021/08/30 21:30:58;;;;;;;47.95;29.75;;;;;;;19.52;85.08;99628.66;5040076;28;20041;-62
2021/08/30 21:33:24;;;;;;;46.30;29.63;;;;;;;19.50;85.23;99636.72;5021325;28;20049;-62
2021/08/30 21:35:51;;;;;;;40.33;26.88;;;;;;;19.57;84.77;99637.19;5033112;28;20275;-62
2021/08/30 21:38:17;;;;;;;42.05;28.10;;;;;;;19.49;85.32;99632.34;5032511;28;20081;-63
2021/08/30 21:40:44;;;;;;;47.33;29.92;;;;;;;19.46;85.42;99629.88;5031516;28;20061;-60
2021/08/30 21:43:09;;;;;;;46.35;28.85;;;;;;;19.40;85.64;99640.88;5036964;28;20041;-57
2021/08/30 21:45:35;;;;;;;49.90;31.40;;;;;;;19.33;85.96;99616.53;5019600;28;20367;-60
2021/08/30 21:48:01;;;;;;;51.58;32.55;;;;;;;19.38;85.95;99639.28;5033677;28;20380;-60
2021/08/30 21:50:27;;;;;;;54.30;33.97;;;;;;;19.39;86.00;99643.63;5036414;28;20049;-58
2021/08/30 21:52:53;;;;;;;45.40;31.42;;;;;;;19.35;86.28;99637.66;5034294;28;20545;-59
2021/08/30 21:55:19;;;;;;;50.88;34.25;;;;;;;19.30;86.75;99645.88;5011630;28;20090;-60
2021/08/30 21:57:44;;;;;;;55.50;36.72;;;;;;;19.28;87.03;99637.16;5032505;28;20049;-60
2021/08/30 22:00:11;;;;;;;61.65;37.67;;;;;;;19.21;87.19;99629.66;5006602;28;20041;-63
2021/08/30 22:02:36;;;;;;;58.72;34.20;;;;;;;19.30;87.11;99634.41;5014233;28;20083;-61
2021/08/30 22:05:02;;;;;;;57.05;35.83;;;;;;;19.39;86.63;99643.63;5036507;28;20077;-62
2021/08/30 22:07:28;;;;;;;52.42;34.38;;;;;;;19.30;86.61;99619.34;5028191;28;20179;-58
2021/08/30 22:09:54;;;;;;;51.45;34.05;;;;;;;19.38;86.67;99633.97;5030680;28;20530;-57
2021/08/30 22:12:21;;;;;;;48.50;32.40;;;;;;;19.42;86.61;99627.53;5012444;28;20045;-62
2021/08/30 22:14:46;;;;;;;52.67;32.38;;;;;;;19.56;85.64;99635.50;5011477;28;20048;-62
2021/08/30 22:17:12;;;;;;;52.38;32.22;;;;;;;19.53;85.23;99636.53;5027284;28;20544;-61
2021/08/30 22:19:38;;;;;;;41.88;29.15;;;;;;;19.60;85.23;99642.31;5028845;28;20087;-62
2021/08/30 22:22:04;;;;;;;40.60;27.60;;;;;;;19.80;84.69;99638.41;5011513;28;20060;-61
2021/08/30 22:24:29;;;;;;;45.53;28.80;;;;;;;19.53;83.97;99611.81;5010392;28;20131;-61
2021/08/30 22:26:55;;;;;;;43.67;27.60;;;;;;;19.99;82.82;99639.78;5029875;28;20044;-59
2021/08/30 22:29:21;;;;;;;37.53;26.90;;;;;;;20.07;82.46;99646.41;5027477;28;20132;-61
2021/08/30 22:31:47;;;;;;;49.85;29.98;;;;;;;19.93;83.04;99640.16;5028629;28;20675;-59
2021/08/30 22:34:12;;;;;;;49.92;30.10;;;;;;;19.76;83.61;99648.34;5011578;28;20042;-62
2021/08/30 22:36:39;;;;;;;49.20;30.42;;;;;;;19.61;84.71;99660.78;4976945;28;20422;-61
2021/08/30 22:39:08;;;;;;;58.22;36.05;;;;;;;19.54;84.83;99663.94;5028448;28;20652;-59
2021/08/30 22:41:36;;;;;;;55.90;35.40;;;;;;;19.49;85.26;99660.69;4992359;28;20049;-61
2021/08/30 22:44:06;;;;;;;67.28;37.85;;;;;;;19.35;85.57;99656.22;5024678;28;20413;-62
2021/08/30 22:46:34;;;;;;;61.28;35.80;;;;;;;19.29;86.12;99645.97;4993535;28;20049;-61
2021/08/30 22:48:59;;;;;;;58.92;36.65;;;;;;;19.14;86.49;99625.69;5026849;28;20387;-60
2021/08/30 22:51:25;;;;;;;60.72;36.00;;;;;;;19.15;86.98;99643.31;5027222;28;20411;-60
2021/08/30 22:53:51;;;;;;;64.82;41.50;;;;;;;19.04;87.42;99638.66;5025958;28;20484;-61
2021/08/30 22:56:17;;;;;;;65.30;40.10;;;;;;;18.99;87.97;99632.78;5025863;28;20493;-58
2021/08/30 22:58:42;;;;;;;67.25;41.35;;;;;;;18.95;88.28;99621.50;4992827;28;20411;-60
2021/08/30 23:01:08;;;;;;;79.90;45.22;;;;;;;18.91;88.36;99625.28;5029096;28;20120;-59
2021/08/30 23:03:34;;;;;;;64.47;39.75;;;;;;;18.80;88.36;99608.34;5028233;28;20081;-59
2021/08/30 23:06:00;;;;;;;54.08;35.40;;;;;;;18.85;88.31;99640.72;5027093;28;20323;-61
2021/08/30 23:08:27;;;;;;;64.05;38.67;;;;;;;18.84;88.58;99644.31;5027558;28;20497;-61
2021/08/30 23:10:52;;;;;;;64.10;37.15;;;;;;;18.82;88.49;99636.44;5011914;28;20044;-61
2021/08/30 23:13:18;;;;;;;64.63;38.95;;;;;;;18.78;88.57;99624.31;5028863;28;20057;-60
2021/08/30 23:15:44;;;;;;;71.07;40.38;;;;;;;18.94;88.27;99632.22;5027449;28;20041;-62
2021/08/30 23:18:10;;;;;;;62.60;40.30;;;;;;;18.92;87.93;99634.09;5011107;28;20052;-68
2021/08/30 23:20:36;;;;;;;66.55;40.17;;;;;;;18.86;88.51;99642.41;5010425;28;20045;-71
2021/08/30 23:23:01;;;;;;;67.50;41.45;;;;;;;18.85;88.73;99623.00;5010247;28;20084;-67
2021/08/30 23:25:27;;;;;;;67.25;41.70;;;;;;;18.79;89.00;99619.88;5027867;28;20410;-66
2021/08/30 23:27:53;;;;;;;65.72;39.53;;;;;;;18.70;88.85;99603.59;5027548;28;20048;-67
2021/08/30 23:30:19;;;;;;;68.05;43.03;;;;;;;18.69;88.88;99606.31;5027998;28;20060;-67
2021/08/30 23:32:44;;;;;;;67.90;41.03;;;;;;;18.76;88.76;99623.56;5027764;28;20061;-66
2021/08/30 23:35:10;;;;;;;60.35;39.47;;;;;;;18.76;89.05;99628.00;5029194;28;20045;-70
2021/08/30 23:37:36;;;;;;;62.10;41.67;;;;;;;18.78;88.82;99620.81;4995465;28;20047;-63
2021/08/30 23:40:06;;;;;;;73.70;45.00;;;;;;;18.78;88.84;99621.69;5029064;28;20495;-63
2021/08/30 23:42:32;;;;;;;69.25;44.45;;;;;;;18.85;88.91;99632.75;5012243;28;20049;-61
2021/08/30 23:45:01;;;;;;;72.43;45.25;;;;;;;18.84;88.34;99621.31;5029112;28;20402;-61
2021/08/30 23:47:28;;;;;;;71.72;42.72;;;;;;;18.84;88.67;99616.00;5027873;28;20045;-61
2021/08/30 23:49:54;;;;;;;76.57;44.92;;;;;;;18.87;88.40;99607.03;5028246;28;20060;-63
2021/08/30 23:52:20;;;;;;;75.05;44.75;;;;;;;18.77;88.44;99613.81;5026530;28;20132;-63
2021/08/30 23:54:45;;;;;;;67.32;42.47;;;;;;;18.82;88.38;99619.69;5028543;28;20128;-63
2021/08/30 23:57:11;;;;;;;73.22;47.00;;;;;;;18.63;88.85;99610.19;5031045;28;20560;-61
2021/08/30 23:59:37;;;;;;;80.60;45.08;;;;;;;18.69;89.04;99620.44;5014746;28;20393;-64
